createdAt,value
2018-09-09T00:03:57.755Z,15.44
2018-09-09T00:10:02.594Z,15.39
2018-09-09T00:16:07.837Z,15.16
2018-09-09T00:22:13.987Z,15.30
2018-09-09T00:28:19.005Z,15.27
2018-09-09T00:34:24.444Z,15.10
2018-09-09T00:40:29.118Z,15.27
2018-09-09T00:46:34.013Z,14.97
2018-09-09T00:52:44.025Z,15.13
2018-09-09T00:58:48.802Z,15.06
2018-09-09T01:04:53.568Z,15.11
2018-09-09T01:10:58.246Z,15.06
2018-09-09T01:17:03.279Z,15.03
2018-09-09T01:23:08.249Z,15.09
2018-09-09T01:29:13.287Z,15.33
2018-09-09T01:35:18.071Z,14.92
2018-09-09T01:41:23.205Z,15.29
2018-09-09T01:47:27.922Z,14.99
2018-09-09T01:53:32.632Z,14.97
2018-09-09T01:59:37.505Z,15.07
2018-09-09T02:05:42.334Z,14.95
2018-09-09T02:11:47.104Z,14.67
2018-09-09T02:17:51.921Z,14.84
2018-09-09T02:23:56.834Z,14.94
2018-09-09T02:30:01.756Z,14.63
2018-09-09T02:36:06.574Z,14.67
2018-09-09T02:42:11.981Z,14.52
2018-09-09T02:48:16.955Z,14.68
2018-09-09T02:54:21.721Z,14.63
2018-09-09T03:00:26.490Z,14.58
2018-09-09T03:06:31.315Z,14.79
2018-09-09T03:12:36.027Z,14.56
2018-09-09T03:18:42.586Z,14.52
2018-09-09T03:24:47.277Z,14.50
2018-09-09T03:30:52.205Z,14.39
2018-09-09T03:36:56.947Z,14.32
2018-09-09T03:43:02.432Z,14.26
2018-09-09T03:49:07.344Z,14.30
2018-09-09T03:55:12.107Z,14.37
2018-09-09T04:01:17.127Z,14.43
2018-09-09T04:07:21.802Z,14.25
2018-09-09T04:13:26.513Z,14.25
2018-09-09T04:19:31.303Z,14.14
2018-09-09T04:25:36.124Z,14.48
2018-09-09T04:31:41.900Z,14.34
2018-09-09T04:37:46.615Z,14.19
2018-09-09T04:43:51.573Z,14.18
2018-09-09T04:49:56.394Z,14.12
2018-09-09T04:56:01.187Z,14.26
2018-09-09T05:02:06.076Z,14.36
2018-09-09T05:08:10.977Z,14.21
2018-09-09T05:14:16.169Z,14.26
2018-09-09T05:20:20.890Z,14.31
2018-09-09T05:26:25.639Z,14.41
2018-09-09T05:32:30.337Z,14.65
2018-09-09T05:38:35.058Z,14.62
2018-09-09T05:44:40.276Z,14.76
2018-09-09T05:50:45.924Z,14.88
2018-09-09T05:56:50.744Z,15.06
2018-09-09T06:02:55.481Z,15.18
2018-09-09T06:09:00.159Z,15.18
2018-09-09T06:15:05.128Z,15.32
2018-09-09T06:21:10.161Z,15.55
2018-09-09T06:27:15.078Z,15.93
2018-09-09T06:33:20.173Z,15.86
2018-09-09T06:39:25.213Z,15.90
2018-09-09T06:45:29.929Z,16.26
2018-09-09T06:51:34.903Z,16.57
2018-09-09T06:57:41.152Z,16.50
2018-09-09T07:03:46.271Z,16.95
2018-09-09T07:09:51.355Z,20.28
2018-09-09T07:15:56.178Z,21.71
2018-09-09T07:22:00.916Z,21.18
2018-09-09T07:28:05.650Z,20.81
2018-09-09T07:34:13.111Z,20.56
2018-09-09T07:40:17.954Z,20.81
2018-09-09T07:46:22.736Z,20.37
2018-09-09T07:52:27.784Z,20.76
2018-09-09T07:58:32.623Z,21.11
2018-09-09T08:04:37.425Z,21.18
2018-09-09T08:10:42.287Z,21.84
2018-09-09T08:16:47.187Z,22.01
2018-09-09T08:22:51.943Z,22.08
2018-09-09T08:28:56.774Z,21.77
2018-09-09T08:35:01.569Z,21.31
2018-09-09T08:41:07.552Z,21.95
2018-09-09T08:47:12.792Z,22.17
2018-09-09T08:53:17.579Z,22.49
2018-09-09T08:59:22.367Z,22.56
2018-09-09T09:05:27.198Z,22.60
2018-09-09T09:11:31.938Z,22.64
2018-09-09T09:17:36.700Z,23.60
2018-09-09T09:23:42.179Z,25.40
2018-09-09T09:29:52.369Z,26.01
2018-09-09T09:35:57.091Z,25.18
2018-09-09T09:42:01.837Z,26.26
2018-09-09T09:48:06.742Z,26.74
2018-09-09T09:54:12.885Z,26.63
2018-09-09T10:00:22.743Z,26.04
2018-09-09T10:06:27.459Z,26.15
2018-09-09T10:12:32.195Z,25.92
2018-09-09T10:18:36.930Z,26.29
2018-09-09T10:24:42.234Z,27.28
2018-09-09T10:30:47.065Z,29.35
2018-09-09T10:36:51.884Z,32.22
2018-09-09T10:42:56.696Z,32.63
2018-09-09T10:49:01.498Z,31.55
2018-09-09T10:55:06.371Z,29.92
2018-09-09T11:01:11.363Z,28.66
2018-09-09T11:07:16.664Z,27.35
2018-09-09T11:13:21.571Z,26.71
2018-09-09T11:19:26.541Z,27.22
2018-09-09T11:25:31.287Z,28.20
2018-09-09T11:31:36.487Z,29.40
2018-09-09T11:37:43.880Z,30.52
2018-09-09T11:43:49.116Z,29.60
2018-09-09T11:49:53.721Z,28.67
2018-09-09T11:55:58.768Z,28.15
2018-09-09T12:02:03.764Z,28.23
2018-09-09T12:08:09.114Z,27.39
2018-09-09T12:14:14.100Z,26.91
2018-09-09T12:20:19.038Z,26.69
2018-09-09T12:26:24.011Z,28.02
2018-09-09T12:32:29.075Z,29.33
2018-09-09T12:38:34.029Z,29.97
2018-09-09T12:44:44.023Z,29.41
2018-09-09T12:50:48.972Z,28.41
2018-09-09T12:56:53.784Z,28.05
2018-09-09T13:02:58.525Z,26.58
2018-09-09T13:09:03.583Z,25.25
2018-09-09T13:15:08.364Z,24.90
2018-09-09T13:21:13.481Z,24.99
2018-09-09T13:27:18.225Z,24.69
2018-09-09T13:33:22.988Z,25.05
2018-09-09T13:39:27.739Z,25.66
2018-09-09T13:45:32.471Z,26.58
2018-09-09T13:51:37.697Z,26.68
2018-09-09T13:57:42.717Z,26.52
2018-09-09T14:03:47.542Z,26.44
2018-09-09T14:09:52.381Z,26.47
2018-09-09T14:15:57.118Z,28.21
2018-09-09T14:22:01.947Z,29.20
2018-09-09T14:28:06.832Z,29.75
2018-09-09T14:34:12.084Z,29.00
2018-09-09T14:40:17.406Z,28.64
2018-09-09T14:46:22.322Z,27.55
2018-09-09T14:52:27.068Z,27.01
2018-09-09T14:58:31.960Z,26.75
2018-09-09T15:04:36.850Z,27.17
2018-09-09T15:10:42.769Z,27.50
2018-09-09T15:16:47.837Z,31.22
2018-09-09T15:22:52.660Z,32.63
2018-09-09T15:28:57.800Z,34.78
2018-09-09T15:35:02.703Z,37.60
2018-09-09T15:41:07.400Z,38.55
2018-09-09T15:47:12.343Z,39.15
2018-09-09T15:53:17.277Z,39.88
2018-09-09T15:59:22.138Z,40.62
2018-09-09T16:05:27.097Z,39.51
2018-09-09T16:11:32.286Z,40.32
2018-09-09T16:17:37.057Z,40.26
2018-09-09T16:23:43.345Z,37.79
2018-09-09T16:29:48.142Z,33.51
2018-09-09T16:35:53.041Z,32.21
2018-09-09T16:41:58.151Z,31.63
2018-09-09T16:48:03.070Z,34.60
2018-09-09T16:54:08.076Z,35.89
2018-09-09T17:00:13.286Z,36.03
2018-09-09T17:06:18.460Z,34.40
2018-09-09T17:12:23.359Z,30.98
2018-09-09T17:18:28.570Z,29.55
2018-09-09T17:24:33.595Z,28.98
2018-09-09T17:30:38.631Z,27.24
2018-09-09T17:36:43.911Z,26.74
2018-09-09T17:42:49.080Z,25.31
2018-09-09T17:48:53.873Z,24.22
2018-09-09T17:54:58.896Z,23.40
2018-09-09T18:01:03.794Z,22.69
2018-09-09T18:07:09.480Z,22.39
2018-09-09T18:13:15.103Z,21.73
2018-09-09T18:19:19.835Z,21.51
2018-09-09T18:25:24.652Z,21.34
2018-09-09T18:31:29.761Z,21.00
2018-09-09T18:37:34.491Z,20.88
2018-09-09T18:43:39.460Z,20.59
2018-09-09T18:49:44.296Z,20.46
2018-09-09T18:55:49.350Z,20.55
2018-09-09T19:01:55.025Z,20.15
2018-09-09T19:07:59.813Z,20.03
2018-09-09T19:14:05.108Z,19.72
2018-09-09T19:20:11.667Z,19.80
2018-09-09T19:26:16.529Z,19.61
2018-09-09T19:32:21.432Z,19.52
2018-09-09T19:38:26.465Z,19.10
2018-09-09T19:44:31.305Z,19.15
2018-09-09T19:50:36.186Z,19.11
2018-09-09T19:56:40.935Z,19.06
2018-09-09T20:02:46.136Z,18.96
2018-09-09T20:08:50.911Z,18.77
2018-09-09T20:14:55.965Z,18.95
2018-09-09T20:21:01.044Z,18.75
2018-09-09T20:27:05.902Z,18.49
2018-09-09T20:33:11.859Z,18.61
2018-09-09T20:39:16.820Z,18.37
2018-09-09T20:45:21.576Z,18.26
2018-09-09T20:51:26.305Z,17.90
2018-09-09T20:57:31.010Z,17.68
2018-09-09T21:03:35.860Z,17.57
2018-09-09T21:09:41.329Z,17.47
2018-09-09T21:15:46.132Z,17.38
2018-09-09T21:21:50.898Z,17.36
2018-09-09T21:27:55.632Z,17.16
2018-09-09T21:34:00.370Z,16.90
2018-09-09T21:40:05.254Z,16.72
2018-09-09T21:46:10.303Z,16.59
2018-09-09T21:52:14.989Z,16.55
2018-09-09T21:58:19.798Z,16.52
2018-09-09T22:04:24.667Z,16.32
2018-09-09T22:10:29.778Z,16.36
2018-09-09T22:16:34.885Z,15.97
2018-09-09T22:22:39.997Z,15.60
2018-09-09T22:28:45.379Z,15.66
2018-09-09T22:34:50.120Z,15.66
2018-09-09T22:40:54.788Z,15.35
2018-09-09T22:46:59.639Z,15.28
2018-09-09T22:53:04.622Z,15.33
2018-09-09T22:59:09.422Z,15.12
2018-09-09T23:05:14.413Z,15.01
2018-09-09T23:11:19.348Z,14.87
2018-09-09T23:17:24.164Z,15.11
2018-09-09T23:23:28.878Z,14.92
2018-09-09T23:29:33.719Z,14.60
2018-09-09T23:35:38.556Z,14.45
2018-09-09T23:41:43.722Z,14.58
2018-09-09T23:47:48.525Z,14.34
2018-09-09T23:53:53.359Z,14.38
2018-09-09T23:59:58.253Z,14.03
